Airfield :
LOGIN :

Register | Disclaimer

   EN    FR    IT 

 










Legend :    VFR   Marginal VFR   IFR   Intensive IFR   Very Intensive IFR
Visi :
Ceiling :
>= 8 km
>= 3000ft
5 to 8 km
1000 to 3000 ft
1500m to 5 km
500 to 1000 ft
800 to 1500m
200 to 500 ft
< 800m
< 200 ft
Symbols :   Thunderstorms  Fog  Heavy snow  Heavy precipitations  Wind > 20 kt
SIGMETs :     Misc.  Thunderstorms  Icing  Turbulence  Mountain Waves  Volcanic Ashes






- Airport Elevation : 796 ft
- IATA code : SYT


LFLN - Saint-Yan

CURRENT METAR :
  • 261430Z AUTO 25005KT 190V290 9999 FEW042 14/06 Q1008 TEMPO 4000 SHRA FEW030CB

EXPIRED METARs :
  • 261400Z AUTO 21004KT 140V250 9999 FEW032/// ///TCU 13/06 Q1008 TEMPO 4000 SHRA FEW030CB
  • 261330Z AUTO 28006KT 9999 SCT039/// BKN048/// BKN062/// ///TCU 12/07 Q1008 TEMPO 4000 SHRA FEW030CB
  • 261300Z AUTO 30010KT 270V330 9999 SCT035/// SCT042/// BKN052/// ///TCU 13/06 Q1008 TEMPO 4000 SHRA FEW030CB
  • 261230Z AUTO 24003KT 190V290 9999 ///TCU 13/07 Q1008 TEMPO 4000 SHRA FEW030CB

TAF TAF LFLN
Valid from the 26 at 15:00 until the 27 at 00:00 UTC


261400Z 2615/2624 24008KT 9999 SCT020 BKN030
TEMPO 2615/2624 4000 SHRA FEW030CB



MET'MAP, your aeronautical weather chart ! - Copyright ORBIFLY December 2007 - Disclaimer

ORBIFLY MET'MAP TEAM :

Programming & Development : Alexandra Zaïnal
Concept & original design : Baudouin d'Aumeries
Assistance for programming : Marc-Olivier Méhu
Technical & hardware support : Manuel Goepfert

Contact : metmap@orbifly.com




SOURCES & CREDITS :

   NOAA